Terminal Aerodrome Forecast
Issued by NWS Cleveland, OH

Home | Current Version | Previous Version | Text Only | Print | Product List | Glossary Off
Versions: 1 2 3 4 5 6 7 8 9 10 11 12 13 14 15 16 17 18

000
FTUS41 KCLE 171000 AAA
TAFYNG
TAF AMD
KYNG 171039Z 1711/1806 23005KT P6SM BKN020 OVC035
     FM171500 28006KT P6SM SCT008 BKN020
     FM172200 VRB03KT P6SM SCT022=

USA.gov is the U.S. government's official web portal to all federal, state and local government web resources and services.